Time;durP1;ratioP1;P1;durP2;ratioP2;P2;SDS_P1;SDS_P2;PMS_P1;PMS_P2;Temp;Humidity;BMP_temperature;BMP_pressure;BME280_temperature;BME280_humidity;BME280_pressure;Samples;Min_cycle;Max_cycle;Signal;HPM_P1;HPM_P2
2022/04/07 00:02:29;;;;;;;88.40;39.45;;;;;;;6.11;76.23;91484.75;5011017;28;20061;-91
2022/04/07 00:08:45;;;;;;;90.72;40.17;;;;;;;6.08;76.56;91501.69;5009578;28;20076;-91
2022/04/07 00:11:32;;;;;;;;;;;;;;;6.25;77.13;91535.72;5034135;28;20521;-91
2022/04/07 00:14:18;;;;;;;94.75;40.22;;;;;;;6.17;76.88;91531.19;4996305;28;19921;-90
2022/04/07 00:16:59;;;;;;;90.93;39.63;;;;;;;5.94;77.29;91509.38;4996311;28;20038;-90
2022/04/07 00:19:40;;;;;;;94.28;39.17;;;;;;;5.67;77.56;91470.25;4996079;28;20056;-91
2022/04/07 00:22:18;;;;;;;88.40;39.53;;;;;;;5.91;77.82;91507.34;4998381;28;20045;-91
2022/04/07 00:24:59;;;;;;;94.53;40.95;;;;;;;5.72;77.90;91477.97;5009312;28;20048;-90
2022/04/07 00:27:52;;;;;;;;;;;;;;;;;;;;;
2022/04/07 00:30:31;;;;;;;;;;;;;;;;;;;;;
2022/04/07 00:33:17;;;;;;;93.63;40.90;;;;;;;5.46;78.99;91456.78;5024215;28;20053;-91
2022/04/07 00:36:03;;;;;;;105.03;41.38;;;;;;;5.59;78.84;91477.63;5015437;28;20120;-90
2022/04/07 00:38:52;;;;;;;95.55;40.50;;;;;;;5.47;78.93;91448.72;5027499;28;20053;-90
2022/04/07 00:41:45;;;;;;;99.60;40.22;;;;;;;5.45;79.13;91442.25;5013343;28;20087;-90
2022/04/07 00:44:22;;;;;;;105.70;42.47;;;;;;;5.50;79.36;91442.22;5040987;28;20049;-90
2022/04/07 00:46:58;;;;;;;87.72;40.35;;;;;;;5.82;79.39;91488.25;5009752;28;20111;-89
2022/04/07 00:49:49;;;;;;;92.10;40.85;;;;;;;5.53;79.65;91439.81;5002614;28;20087;-89
2022/04/07 00:52:47;;;;;;;;;;;;;;;;;;;;;
2022/04/07 00:55:34;;;;;;;93.97;40.65;;;;;;;5.49;79.29;91430.25;5017180;28;20056;-90
2022/04/07 00:58:14;;;;;;;96.47;39.72;;;;;;;5.69;79.61;91452.59;5015411;28;20069;-90
2022/04/07 01:01:17;;;;;;;89.65;38.13;;;;;;;5.48;79.09;91426.91;5015686;28;20471;-90
2022/04/07 01:04:08;;;;;;;;;;;;;;;;;;;;;
2022/04/07 01:06:57;;;;;;;96.47;39.72;;;;;;;5.57;78.95;91451.19;5011229;28;20038;-90
2022/04/07 01:09:53;;;;;;;83.50;37.33;;;;;;;5.41;79.03;91423.88;4996273;28;20072;-90
2022/04/07 01:12:37;;;;;;;89.18;39.88;;;;;;;5.43;79.05;91432.94;5003566;28;20041;-90
2022/04/07 01:18:29;;;;;;;;;;;;;;;;;;;;;
2022/04/07 01:21:36;;;;;;;92.60;40.10;;;;;;;5.24;79.51;91403.59;5003218;28;20072;-90
2022/04/07 01:24:13;;;;;;;96.30;39.03;;;;;;;5.12;79.54;91387.66;5017921;28;20040;-90
2022/04/07 01:27:16;;;;;;;96.53;40.53;;;;;;;5.52;79.92;91453.84;5035204;28;20042;-90
2022/04/07 01:30:02;;;;;;;91.95;39.42;;;;;;;5.31;80.35;91417.00;5002720;28;20029;-90
2022/04/07 01:32:56;;;;;;;94.10;40.40;;;;;;;5.41;80.44;91442.06;5001626;28;20071;-90
2022/04/07 01:35:38;;;;;;;100.15;40.80;;;;;;;5.09;80.79;91389.00;5002912;28;20038;-89
2022/04/07 01:38:16;;;;;;;97.13;39.80;;;;;;;5.34;80.71;91432.00;5002527;28;20045;-90
2022/04/07 01:41:15;;;;;;;100.32;40.65;;;;;;;4.92;80.48;91378.31;5002604;28;20033;-90
2022/04/07 01:43:59;;;;;;;100.45;41.42;;;;;;;4.89;80.48;91378.88;5020544;28;20038;-90
2022/04/07 01:46:53;;;;;;;101.53;39.70;;;;;;;4.92;80.58;91384.28;5035084;28;20036;-89
2022/04/07 01:49:24;;;;;;;103.65;42.08;;;;;;;5.04;80.65;91401.25;5019025;28;20095;-89
2022/04/07 01:52:05;;;;;;;104.50;42.17;;;;;;;5.02;80.84;91401.53;5018766;28;20576;-89
2022/04/07 01:54:53;;;;;;;110.10;44.38;;;;;;;4.85;81.61;91370.09;4998960;28;20044;-89
2022/04/07 01:57:45;;;;;;;101.35;42.80;;;;;;;5.24;81.63;91439.16;4999152;28;20038;-90
2022/04/07 02:00:34;;;;;;;99.93;40.78;;;;;;;4.70;81.46;91369.22;5014305;28;20056;-90
2022/04/07 02:03:27;;;;;;;103.38;42.50;;;;;;;4.82;81.89;91396.56;5001185;28;20415;-90
2022/04/07 02:06:37;;;;;;;103.85;40.75;;;;;;;4.57;81.84;91367.28;4998025;28;20112;-90
2022/04/07 02:09:24;;;;;;;116.20;44.70;;;;;;;4.75;82.72;91397.69;5030610;28;20380;-89
2022/04/07 02:12:47;;;;;;;;;;;;;;;;;;;;;
2022/04/07 02:15:21;;;;;;;111.72;45.28;;;;;;;4.61;82.92;91372.72;5013263;28;20045;-90
2022/04/07 02:18:17;;;;;;;122.65;46.75;;;;;;;4.62;83.34;91369.09;5002001;28;20033;-90
2022/04/07 02:24:41;;;;;;;116.00;46.08;;;;;;;4.87;83.11;91404.31;5049777;28;20048;-90
2022/04/07 02:28:01;;;;;;;113.22;47.05;;;;;;;4.52;83.49;91362.94;5034424;28;20053;-90
2022/04/07 02:30:39;;;;;;;114.32;46.33;;;;;;;4.55;83.56;91379.78;5024801;28;20037;-89
2022/04/07 02:33:22;;;;;;;117.45;46.42;;;;;;;4.50;83.98;91378.03;5036445;28;20092;-91
2022/04/07 02:35:52;;;;;;;115.55;47.70;;;;;;;4.54;84.31;91370.44;5006167;28;20044;-90
2022/04/07 02:38:45;;;;;;;121.78;48.08;;;;;;;4.51;84.53;91374.38;5021001;28;20041;-89
2022/04/07 02:42:00;;;;;;;;;;;;;;;;;;;;;
2022/04/07 02:44:26;;;;;;;113.35;45.58;;;;;;;4.41;84.17;91358.16;5049868;28;20045;-90
2022/04/07 02:47:38;;;;;;;123.88;48.15;;;;;;;4.37;84.40;91352.75;5049544;28;20029;-92
2022/04/07 02:50:43;;;;;;;119.25;45.58;;;;;;;4.49;84.49;91380.88;5055379;28;20529;-89
2022/04/07 02:53:30;;;;;;;115.85;47.08;;;;;;;4.43;84.77;91369.00;5057403;28;20037;-90
2022/04/07 02:56:18;;;;;;;117.72;46.70;;;;;;;4.38;84.11;91351.69;5021985;28;20397;-91
2022/04/07 02:58:59;;;;;;;;;;;;;;;;;;;;;
2022/04/07 03:01:46;;;;;;;124.07;47.13;;;;;;;4.66;84.21;91396.78;5021033;28;20124;-90
2022/04/07 03:04:45;;;;;;;;;;;;;;;;;;;;;
2022/04/07 03:07:25;;;;;;;129.93;49.30;;;;;;;4.45;85.19;91344.34;5026742;28;20045;-90
2022/04/07 03:11:13;;;;;;;;;;;;;;;;;;;;;
2022/04/07 03:13:53;;;;;;;;;;;;;;;;;;;;;
2022/04/07 03:16:52;;;;;;;;;;;;;;;;;;;;;
2022/04/07 03:19:36;;;;;;;130.27;47.85;;;;;;;4.46;83.62;91365.84;4988085;28;20041;-89
2022/04/07 03:22:12;;;;;;;117.43;46.50;;;;;;;4.61;84.11;91383.06;5017117;28;20037;-89
2022/04/07 03:24:50;;;;;;;119.85;47.00;;;;;;;4.62;83.97;91382.81;5020466;28;20043;-90
2022/04/07 03:27:37;;;;;;;122.10;46.88;;;;;;;4.45;83.71;91359.16;5018622;28;20127;-90
2022/04/07 03:30:28;;;;;;;123.85;48.10;;;;;;;4.70;84.29;91392.56;5001968;28;20052;-90
2022/04/07 03:33:12;;;;;;;126.97;47.75;;;;;;;4.53;83.83;91361.91;4999616;28;20087;-89
2022/04/07 03:35:49;;;;;;;126.72;47.30;;;;;;;4.43;84.62;91350.88;4998615;28;20049;-90
2022/04/07 03:38:42;;;;;;;124.03;47.55;;;;;;;4.68;84.93;91393.88;5016884;28;20029;-88
2022/04/07 03:41:13;;;;;;;129.20;47.92;;;;;;;4.42;85.08;91363.06;5000824;28;20051;-91
2022/04/07 03:43:55;;;;;;;;;;;;;;;;;;;;;
2022/04/07 03:46:29;;;;;;;125.50;48.70;;;;;;;4.30;85.72;91358.25;5014784;28;20068;-90
2022/04/07 03:48:59;;;;;;;119.57;47.75;;;;;;;4.29;85.97;91351.53;4999223;28;20048;-90
2022/04/07 03:51:36;;;;;;;139.00;50.50;;;;;;;4.25;86.28;91344.56;4998103;28;20042;-90
2022/04/07 03:54:31;;;;;;;;;;;;;;;;;;;;;
2022/04/07 03:57:07;;;;;;;129.50;47.15;;;;;;;4.32;85.69;91366.53;5000202;28;20140;-89
2022/04/07 03:59:57;;;;;;;;;;;;;;;;;;;;;
2022/04/07 04:02:52;;;;;;;;;;;;;;;;;;;;;
2022/04/07 04:05:34;;;;;;;121.82;47.17;;;;;;;4.25;86.61;91376.44;5036551;28;20481;-89
2022/04/07 04:08:25;;;;;;;141.57;50.45;;;;;;;4.46;86.69;91423.66;5022293;28;20071;-89
2022/04/07 04:11:14;;;;;;;;;;;;;;;;;;;;;
2022/04/07 04:13:46;;;;;;;123.43;46.38;;;;;;;4.01;86.13;91355.69;5018726;28;20076;-90
2022/04/07 04:16:17;;;;;;;135.88;48.78;;;;;;;4.02;86.53;91346.09;5036475;28;20037;-90
2022/04/07 04:19:06;;;;;;;132.93;48.75;;;;;;;4.03;87.02;91352.81;5034971;28;20048;-89
2022/04/07 04:22:02;;;;;;;125.43;47.78;;;;;;;4.20;87.13;91367.94;5020433;28;20049;-90
2022/04/07 04:24:52;;;;;;;136.18;48.50;;;;;;;4.28;86.94;91388.06;5034672;28;20079;-89
2022/04/07 04:27:47;;;;;;;132.30;47.65;;;;;;;4.28;87.14;91401.81;5018251;28;20038;-90
2022/04/07 04:30:32;;;;;;;134.60;48.97;;;;;;;4.17;87.25;91390.00;5018316;28;20061;-89
2022/04/07 04:33:08;;;;;;;133.43;48.08;;;;;;;3.96;87.46;91372.06;5003041;28;20136;-86
2022/04/07 04:36:01;;;;;;;;;;;;;;;;;;;;;
2022/04/07 04:38:36;;;;;;;127.55;45.80;;;;;;;4.14;87.78;91401.69;5055373;28;19912;-87
2022/04/07 04:41:11;;;;;;;129.43;48.35;;;;;;;4.15;87.95;91392.09;5024817;28;20119;-87
2022/04/07 04:44:06;;;;;;;150.95;48.08;;;;;;;4.10;88.26;91371.41;5040487;28;20550;-88
2022/04/07 04:47:04;;;;;;;138.35;49.60;;;;;;;4.15;87.80;91379.13;5034562;28;20048;-88
2022/04/07 04:52:27;;;;;;;129.57;49.28;;;;;;;4.02;87.37;91346.88;5024895;28;20045;-87
2022/04/07 04:55:10;;;;;;;130.07;47.53;;;;;;;4.46;87.11;91417.69;5037763;28;20046;-88
2022/04/07 04:57:45;;;;;;;139.98;50.35;;;;;;;4.20;87.33;91378.31;5022233;28;20045;-85
2022/04/07 05:00:11;;;;;;;131.23;46.53;;;;;;;4.27;86.93;91381.34;5037263;28;20041;-86
2022/04/07 05:02:39;;;;;;;131.32;49.08;;;;;;;4.23;87.25;91378.53;5052574;28;20017;-85
2022/04/07 05:05:06;;;;;;;144.55;48.25;;;;;;;4.48;86.88;91410.41;5060670;28;20052;-85
2022/04/07 05:07:32;;;;;;;129.20;48.90;;;;;;;4.35;86.65;91391.13;5041225;28;20115;-86
2022/04/07 05:09:58;;;;;;;129.27;48.00;;;;;;;4.47;86.55;91409.66;5042002;28;20426;-85
2022/04/07 05:12:23;;;;;;;139.63;49.10;;;;;;;4.46;86.14;91408.13;5035917;28;20033;-86
2022/04/07 05:14:49;;;;;;;136.35;48.55;;;;;;;4.55;86.23;91405.69;5021310;28;20051;-85
2022/04/07 05:17:17;;;;;;;136.02;48.78;;;;;;;4.48;86.08;91394.88;5036813;28;20068;-84
2022/04/07 05:19:44;;;;;;;129.02;47.70;;;;;;;4.53;85.79;91407.78;5036695;28;20128;-85
2022/04/07 05:22:10;;;;;;;134.55;49.72;;;;;;;4.76;85.89;91421.81;5074475;28;20041;-85
2022/04/07 05:24:36;;;;;;;139.88;49.13;;;;;;;4.88;85.26;91426.59;5039463;28;20106;-85
2022/04/07 05:27:01;;;;;;;144.23;48.35;;;;;;;4.89;85.43;91428.16;5056361;28;20044;-84
2022/04/07 05:29:27;;;;;;;148.43;52.08;;;;;;;4.85;85.40;91412.38;5039434;28;20044;-85
2022/04/07 05:31:52;;;;;;;145.20;49.97;;;;;;;4.95;85.44;91429.63;5034528;28;20076;-84
2022/04/07 05:34:18;;;;;;;136.80;49.63;;;;;;;4.87;84.92;91412.09;5003664;28;20076;-85
2022/04/07 05:36:43;;;;;;;137.98;49.15;;;;;;;5.03;85.10;91429.03;5035657;28;20061;-84
2022/04/07 05:39:09;;;;;;;140.23;49.83;;;;;;;5.10;84.83;91426.84;5036567;28;20600;-84
2022/04/07 05:41:34;;;;;;;145.05;50.75;;;;;;;5.13;84.93;91413.31;5026931;28;20087;-85
2022/04/07 05:44:00;;;;;;;138.55;50.22;;;;;;;5.17;84.45;91400.56;5031547;28;20510;-86
2022/04/07 05:46:26;;;;;;;133.40;47.80;;;;;;;5.42;84.11;91420.22;5030837;28;20471;-86
2022/04/07 05:48:51;;;;;;;140.48;50.85;;;;;;;5.48;83.51;91420.94;5032065;28;20034;-83
2022/04/07 05:51:17;;;;;;;149.57;49.67;;;;;;;5.50;82.88;91413.66;5035942;28;20049;-86
2022/04/07 05:53:42;;;;;;;136.80;48.80;;;;;;;5.46;82.39;91397.84;5035840;28;20045;-84
2022/04/07 05:56:08;;;;;;;141.43;49.30;;;;;;;5.60;82.23;91409.06;5052549;28;20591;-87
2022/04/07 05:58:34;;;;;;;136.32;48.65;;;;;;;5.80;81.92;91418.41;5019774;28;20035;-87
2022/04/07 06:00:59;;;;;;;147.40;50.08;;;;;;;6.00;81.82;91429.56;5037010;28;20071;-87
2022/04/07 06:03:26;;;;;;;140.68;51.58;;;;;;;6.14;81.25;91422.59;5036555;28;20045;-87
2022/04/07 06:05:54;;;;;;;140.88;50.42;;;;;;;6.21;81.07;91414.44;5003689;28;20067;-88
2022/04/07 06:08:20;;;;;;;139.95;49.50;;;;;;;6.45;79.96;91412.47;5036671;28;20075;-88
2022/04/07 06:10:46;;;;;;;136.05;49.47;;;;;;;6.82;79.55;91425.59;5062973;28;20438;-88
2022/04/07 06:13:11;;;;;;;142.63;49.97;;;;;;;7.19;77.70;91403.81;5019813;28;20044;-88
2022/04/07 06:15:39;;;;;;;140.80;51.30;;;;;;;8.02;75.76;91423.69;5019796;28;20441;-87
2022/04/07 06:18:05;;;;;;;155.55;51.53;;;;;;;8.53;72.51;91425.91;5020046;28;20470;-86
2022/04/07 06:20:32;;;;;;;141.07;50.63;;;;;;;8.65;71.50;91419.34;5035771;28;20036;-86
2022/04/07 06:22:58;;;;;;;149.15;51.25;;;;;;;8.88;70.71;91423.44;5053558;28;20524;-87
2022/04/07 06:25:27;;;;;;;148.02;51.75;;;;;;;9.84;68.15;91410.63;5054036;28;20069;-87
2022/04/07 06:27:52;;;;;;;136.35;51.20;;;;;;;10.53;65.55;91432.56;5019463;28;20041;-87
2022/04/07 06:30:20;;;;;;;148.68;51.75;;;;;;;10.88;64.13;91435.88;5053639;28;20063;-86
2022/04/07 06:32:46;;;;;;;135.52;51.15;;;;;;;11.45;61.94;91430.25;5035782;28;20040;-86
2022/04/07 06:35:14;;;;;;;139.65;50.38;;;;;;;11.92;60.70;91446.97;5053723;28;20142;-87
2022/04/07 06:37:46;;;;;;;139.73;50.72;;;;;;;13.06;58.26;91443.03;5035905;28;20097;-86
2022/04/07 06:40:12;;;;;;;147.98;52.45;;;;;;;13.77;56.03;91443.75;5019312;28;20048;-87
2022/04/07 06:42:40;;;;;;;146.63;51.05;;;;;;;15.90;51.22;91430.44;5053160;28;20041;-87
2022/04/07 06:45:06;;;;;;;138.13;50.95;;;;;;;17.28;47.72;91435.38;5015901;28;20040;-87
2022/04/07 06:47:39;;;;;;;124.72;49.95;;;;;;;18.58;43.80;91435.34;5015516;28;20240;-87
2022/04/07 06:50:07;;;;;;;134.27;51.08;;;;;;;19.52;39.83;91429.88;5052397;28;20044;-86
2022/04/07 06:52:32;;;;;;;133.27;49.70;;;;;;;19.41;38.61;91434.31;5035629;28;20037;-87
2022/04/07 06:54:58;;;;;;;129.27;50.90;;;;;;;18.75;39.70;91439.31;5018878;28;20662;-87
2022/04/07 06:57:24;;;;;;;119.75;50.65;;;;;;;16.20;44.01;91445.78;5019232;28;20048;-87
2022/04/07 06:59:49;;;;;;;107.47;45.75;;;;;;;16.60;42.80;91424.31;5035319;28;20040;-87
2022/04/07 07:02:15;;;;;;;113.30;46.67;;;;;;;17.94;41.12;91437.91;5018987;28;20037;-87
2022/04/07 07:04:40;;;;;;;104.57;44.28;;;;;;;17.38;41.01;91440.09;5035270;28;20060;-87
2022/04/07 07:07:06;;;;;;;105.85;44.88;;;;;;;16.08;43.99;91456.47;5052993;28;20125;-86
2022/04/07 07:09:32;;;;;;;100.45;44.10;;;;;;;15.12;45.95;91450.44;5018979;28;20041;-86
2022/04/07 07:11:57;;;;;;;102.85;45.00;;;;;;;15.30;45.98;91446.38;5038180;28;20065;-87
2022/04/07 07:14:23;;;;;;;104.70;46.25;;;;;;;14.24;49.19;91440.59;5020747;28;20045;-87
2022/04/07 07:16:48;;;;;;;102.07;44.90;;;;;;;13.45;51.21;91433.03;5035664;28;20538;-86
2022/04/07 07:19:16;;;;;;;94.00;43.35;;;;;;;12.54;54.51;91442.78;5019016;28;20543;-86
2022/04/07 07:21:41;;;;;;;99.35;43.33;;;;;;;11.63;56.98;91443.25;5018933;28;20387;-88
2022/04/07 07:24:07;;;;;;;100.68;43.05;;;;;;;12.15;56.60;91439.56;5035092;28;20057;-88
2022/04/07 07:26:33;;;;;;;92.57;40.47;;;;;;;12.73;55.00;91450.94;5034942;28;20040;-86
2022/04/07 07:28:59;;;;;;;97.47;43.35;;;;;;;13.12;55.59;91449.59;5053428;28;20087;-87
2022/04/07 07:31:24;;;;;;;95.75;42.38;;;;;;;13.03;53.70;91442.91;5018337;28;20036;-87
2022/04/07 07:33:50;;;;;;;96.68;42.45;;;;;;;11.78;59.13;91450.59;5034602;28;20445;-88
2022/04/07 07:36:16;;;;;;;88.55;40.35;;;;;;;11.59;58.69;91453.59;5018698;28;20127;-87
2022/04/07 07:38:41;;;;;;;105.43;43.47;;;;;;;11.76;59.02;91452.75;5066918;28;20025;-87
2022/04/07 07:41:09;;;;;;;98.15;43.75;;;;;;;11.73;58.33;91421.94;5034875;28;20048;-87
2022/04/07 07:43:35;;;;;;;102.72;44.05;;;;;;;11.27;60.40;91462.09;5034961;28;20040;-87
2022/04/07 07:46:00;;;;;;;101.07;44.58;;;;;;;12.01;58.85;91452.94;5034913;28;20029;-87
2022/04/07 07:48:27;;;;;;;94.93;42.13;;;;;;;11.80;59.03;91458.13;5018782;28;20090;-88
2022/04/07 07:50:53;;;;;;;99.22;43.63;;;;;;;11.68;60.81;91445.69;5019983;28;20048;-88
2022/04/07 07:53:19;;;;;;;92.47;41.95;;;;;;;11.66;59.68;91443.41;5034408;28;20093;-86
2022/04/07 07:55:45;;;;;;;105.97;43.83;;;;;;;12.32;58.00;91446.53;5052686;28;20041;-87
2022/04/07 07:58:10;;;;;;;106.20;43.00;;;;;;;12.44;58.13;91446.59;5034418;28;20037;-87
2022/04/07 08:00:36;;;;;;;101.85;44.42;;;;;;;12.24;57.90;91427.91;5018301;28;20533;-86
2022/04/07 08:03:02;;;;;;;94.88;42.25;;;;;;;12.38;57.43;91435.50;5053051;28;20064;-87
2022/04/07 08:05:28;;;;;;;107.97;44.78;;;;;;;11.82;59.40;91455.94;5017838;28;20056;-87
2022/04/07 08:07:53;;;;;;;95.22;42.63;;;;;;;11.98;59.43;91450.94;5034544;28;20029;-87
2022/04/07 08:10:19;;;;;;;95.80;43.88;;;;;;;11.81;58.70;91436.81;5034935;28;20045;-87
2022/04/07 08:12:45;;;;;;;98.35;42.78;;;;;;;11.61;59.28;91432.31;5034640;28;20159;-87
2022/04/07 08:15:10;;;;;;;91.30;41.83;;;;;;;11.83;59.81;91453.00;5034648;28;20489;-88
2022/04/07 08:17:36;;;;;;;97.32;43.85;;;;;;;12.08;57.88;91437.44;5018295;28;20041;-87
2022/04/07 08:20:07;;;;;;;95.53;41.53;;;;;;;12.20;58.10;91440.13;5035051;28;20049;-87
2022/04/07 08:22:33;;;;;;;102.90;45.85;;;;;;;11.65;59.16;91425.38;5052471;28;20080;-90
2022/04/07 08:24:59;;;;;;;91.55;40.75;;;;;;;11.69;59.96;91428.91;5034531;28;20401;-88
2022/04/07 08:27:24;;;;;;;102.50;44.88;;;;;;;11.74;61.09;91422.69;5018683;28;20109;-87
2022/04/07 08:29:51;;;;;;;103.55;41.33;;;;;;;11.98;60.71;91420.25;5018089;28;20072;-87
2022/04/07 08:32:16;;;;;;;88.97;42.10;;;;;;;12.24;58.27;91404.28;5034314;28;20078;-88
2022/04/07 08:34:42;;;;;;;89.03;41.70;;;;;;;13.30;55.68;91444.19;5052138;28;20433;-87
2022/04/07 08:37:08;;;;;;;85.15;38.33;;;;;;;12.22;57.47;91432.69;5034161;28;20039;-87
2022/04/07 08:39:33;;;;;;;85.45;40.97;;;;;;;12.42;58.75;91439.03;5018408;28;20414;-87
2022/04/07 08:41:59;;;;;;;83.15;40.08;;;;;;;12.46;57.47;91400.53;5018027;28;20036;-88
2022/04/07 08:44:31;;;;;;;92.72;40.58;;;;;;;11.95;58.60;91444.47;5052246;28;20116;-88
2022/04/07 08:46:59;;;;;;;91.40;41.10;;;;;;;11.60;59.31;91455.16;5034607;28;20037;-87
2022/04/07 08:49:29;;;;;;;92.28;42.75;;;;;;;12.21;58.95;91438.28;5019618;28;20049;-87
2022/04/07 08:51:55;;;;;;;81.03;38.28;;;;;;;12.15;58.86;91448.19;5065723;28;20111;-89
2022/04/07 08:54:21;;;;;;;87.07;39.70;;;;;;;12.22;58.40;91456.31;5052229;28;20052;-88
2022/04/07 08:56:48;;;;;;;89.50;41.30;;;;;;;12.00;58.85;91461.88;5068566;28;20048;-93
2022/04/07 08:59:14;;;;;;;85.13;41.42;;;;;;;12.06;58.94;91465.84;5037226;28;20029;-89
2022/04/07 09:01:40;;;;;;;95.53;42.17;;;;;;;11.66;61.06;91464.38;5035503;28;20025;-88
2022/04/07 09:04:05;;;;;;;92.22;41.42;;;;;;;12.43;59.24;91468.69;5025283;28;20119;-90
2022/04/07 09:06:35;;;;;;;92.97;40.60;;;;;;;12.83;57.86;91460.28;5038577;28;20086;-87
2022/04/07 09:09:16;;;;;;;93.82;42.05;;;;;;;12.61;57.44;91414.94;5037918;28;20051;-88
2022/04/07 09:11:45;;;;;;;86.43;41.08;;;;;;;13.04;56.96;91465.47;5038065;28;20040;-88
2022/04/07 09:14:12;;;;;;;100.65;40.80;;;;;;;13.40;56.83;91472.69;5055606;28;20059;-88
2022/04/07 09:16:39;;;;;;;92.95;42.22;;;;;;;12.89;56.97;91474.75;5021130;28;20037;-89
2022/04/07 09:19:07;;;;;;;90.68;39.47;;;;;;;13.39;55.39;91473.00;5037667;28;20094;-88
2022/04/07 09:21:36;;;;;;;78.32;37.80;;;;;;;12.89;55.28;91457.13;5037318;28;20045;-88
2022/04/07 09:24:07;;;;;;;77.72;37.47;;;;;;;12.65;57.12;91462.28;5037441;28;20040;-87
2022/04/07 09:26:41;;;;;;;84.55;38.75;;;;;;;13.35;54.68;91466.84;5055655;28;20066;-88
2022/04/07 09:29:09;;;;;;;81.75;37.15;;;;;;;13.15;54.79;91453.47;5037867;28;20593;-89
2022/04/07 09:31:39;;;;;;;60.33;27.95;;;;;;;12.27;55.49;91458.75;5020749;28;20029;-88
2022/04/07 09:34:05;;;;;;;76.90;38.13;;;;;;;12.52;56.81;91465.97;5032472;28;20060;-87
2022/04/07 09:36:31;;;;;;;80.20;38.78;;;;;;;12.42;56.17;91472.38;5053892;28;20041;-88
2022/04/07 09:39:01;;;;;;;77.50;37.97;;;;;;;12.41;56.45;91465.59;5036328;28;20025;-88
2022/04/07 09:41:28;;;;;;;72.00;36.13;;;;;;;12.67;57.19;91476.63;5037671;28;20041;-88
2022/04/07 09:43:58;;;;;;;68.65;35.38;;;;;;;12.89;55.84;91464.22;5037376;28;20124;-88
2022/04/07 09:46:34;;;;;;;73.47;37.67;;;;;;;13.22;54.35;91471.31;5001711;28;20053;-89
2022/04/07 09:49:10;;;;;;;75.35;35.95;;;;;;;13.07;55.08;91465.59;5033960;28;20033;-88
2022/04/07 09:51:50;;;;;;;69.50;35.83;;;;;;;13.15;53.89;91434.28;5041242;28;20041;-88
2022/04/07 09:54:18;;;;;;;61.10;31.77;;;;;;;13.37;55.30;91452.28;5036412;28;20107;-90
2022/04/07 09:56:47;;;;;;;70.88;34.38;;;;;;;13.43;53.48;91437.06;5033317;28;20066;-89
2022/04/07 09:59:16;;;;;;;71.97;36.35;;;;;;;13.74;54.29;91454.94;5020233;28;20065;-88
2022/04/07 10:01:43;;;;;;;71.65;36.55;;;;;;;13.89;53.98;91456.91;5035738;28;20052;-89
2022/04/07 10:04:10;;;;;;;64.18;33.78;;;;;;;13.53;53.15;91441.88;5054222;28;20041;-88
2022/04/07 10:06:39;;;;;;;69.00;35.45;;;;;;;13.90;52.30;91453.16;5019954;28;20486;-88
2022/04/07 10:09:08;;;;;;;69.72;34.53;;;;;;;13.42;54.21;91446.03;5004225;28;20037;-88
2022/04/07 10:11:33;;;;;;;72.80;35.67;;;;;;;13.73;51.80;91448.91;5036458;28;20029;-89
2022/04/07 10:14:00;;;;;;;68.03;34.95;;;;;;;13.44;52.63;91442.00;5019877;28;20055;-88
2022/04/07 10:16:27;;;;;;;66.28;34.30;;;;;;;13.27;53.63;91436.94;5054697;28;20040;-89
2022/04/07 10:18:57;;;;;;;56.78;27.08;;;;;;;12.65;53.66;91436.81;5003414;28;20136;-90
2022/04/07 10:21:41;;;;;;;52.97;27.70;;;;;;;13.28;51.72;91443.75;5046874;28;20037;-89
2022/04/07 10:24:10;;;;;;;70.25;32.72;;;;;;;13.11;51.99;91431.56;5020359;28;20059;-89
2022/04/07 10:26:41;;;;;;;55.85;31.70;;;;;;;13.56;51.68;91422.84;5054438;28;20040;-88
2022/04/07 10:29:19;;;;;;;60.55;31.92;;;;;;;13.49;53.46;91423.38;5036096;28;20136;-89
2022/04/07 10:32:10;;;;;;;56.50;29.42;;;;;;;12.93;50.77;91420.47;5048806;28;20025;-90
2022/04/07 10:34:36;;;;;;;65.47;32.80;;;;;;;13.50;52.81;91418.88;5029714;28;20036;-89
2022/04/07 10:37:06;;;;;;;65.30;34.63;;;;;;;13.35;52.41;91393.25;5021198;28;20041;-89
2022/04/07 10:39:39;;;;;;;70.45;34.00;;;;;;;14.14;50.67;91420.00;5036461;28;20037;-90
2022/04/07 10:42:05;;;;;;;58.75;30.10;;;;;;;13.99;50.53;91416.19;5054092;28;20516;-90
2022/04/07 10:44:33;;;;;;;64.05;32.53;;;;;;;13.99;50.26;91405.69;5036363;28;20048;-89
2022/04/07 10:47:05;;;;;;;55.30;30.25;;;;;;;13.21;50.95;91388.31;5019866;28;20056;-90
2022/04/07 10:49:32;;;;;;;59.78;30.90;;;;;;;14.34;51.55;91411.16;5032235;28;20043;-89
2022/04/07 10:52:02;;;;;;;50.95;27.15;;;;;;;14.32;46.55;91368.63;5046218;28;20041;-89
2022/04/07 10:55:23;;;;;;;69.00;31.05;;;;;;;14.24;50.24;91360.88;5046893;28;20041;-91
2022/04/07 10:58:20;;;;;;;56.58;29.13;;;;;;;13.64;51.52;91352.81;5028750;28;20058;-89
2022/04/07 11:00:51;;;;;;;55.13;29.80;;;;;;;14.10;48.26;91348.09;5017950;28;20056;-90
2022/04/07 11:03:22;;;;;;;62.53;32.67;;;;;;;14.43;49.67;91373.38;5018468;28;20025;-89
2022/04/07 11:05:59;;;;;;;63.10;32.67;;;;;;;13.93;49.37;91347.25;5015028;28;20063;-89
2022/04/07 11:08:25;;;;;;;55.33;29.17;;;;;;;14.15;48.67;91369.66;4998784;28;20034;-90
2022/04/07 11:10:52;;;;;;;60.13;30.67;;;;;;;14.52;49.36;91379.25;5027509;28;20037;-89
2022/04/07 11:13:38;;;;;;;62.88;30.85;;;;;;;14.28;48.33;91351.97;4998497;28;20475;-89
2022/04/07 11:16:30;;;;;;;45.47;24.75;;;;;;;14.32;47.12;91399.41;5013855;28;20045;-88
2022/04/07 11:19:24;;;;;;;51.10;26.88;;;;;;;14.49;47.67;91388.59;5013413;28;20080;-92
2022/04/07 11:22:05;;;;;;;50.70;25.58;;;;;;;14.49;48.30;91356.25;5030723;28;20072;-91
2022/04/07 11:24:33;;;;;;;47.80;25.40;;;;;;;15.02;46.98;91359.47;5014531;28;20037;-91
2022/04/07 11:27:42;;;;;;;43.33;24.58;;;;;;;14.80;45.77;91358.19;5013990;28;20558;-91
2022/04/07 11:30:14;;;;;;;42.30;22.48;;;;;;;14.19;45.93;91313.75;4997110;28;20128;-91
2022/04/07 11:33:18;;;;;;;45.35;25.40;;;;;;;14.78;46.32;91390.13;4981918;28;20128;-91
2022/04/07 11:36:03;;;;;;;38.50;20.20;;;;;;;14.93;44.28;91379.97;5014163;28;20034;-90
2022/04/07 11:38:36;;;;;;;42.55;23.42;;;;;;;14.85;45.10;91342.13;5029568;28;20127;-90
2022/04/07 11:41:09;;;;;;;37.65;21.98;;;;;;;14.15;45.91;91318.91;4998547;28;20490;-91
2022/04/07 11:43:40;;;;;;;42.95;22.55;;;;;;;14.32;45.78;91363.34;5030257;28;20033;-90
2022/04/07 11:46:13;;;;;;;44.67;22.48;;;;;;;14.79;45.71;91335.56;5013510;28;20030;-89
2022/04/07 11:48:41;;;;;;;41.28;22.27;;;;;;;14.67;44.82;91336.41;5014324;28;20037;-90
2022/04/07 11:51:19;;;;;;;45.50;24.40;;;;;;;14.80;45.33;91341.63;5013416;28;20025;-92
2022/04/07 11:53:52;;;;;;;43.17;21.80;;;;;;;14.69;44.89;91344.00;5013825;28;20037;-90
2022/04/07 11:56:25;;;;;;;42.20;22.40;;;;;;;14.82;44.93;91315.72;4997231;28;20068;-91
2022/04/07 11:59:07;;;;;;;41.03;22.45;;;;;;;15.20;44.63;91371.22;5029521;28;20041;-91
2022/04/07 12:01:53;;;;;;;30.25;17.67;;;;;;;14.53;43.45;91294.66;5013018;28;20552;-90
2022/04/07 12:04:19;;;;;;;41.42;21.67;;;;;;;14.91;43.98;91311.03;4997864;28;20049;-90
2022/04/07 12:06:49;;;;;;;37.25;20.48;;;;;;;14.86;43.94;91341.03;4996591;28;20041;-90
2022/04/07 12:12:20;;;;;;;38.38;20.98;;;;;;;15.19;43.20;91348.56;5012203;28;20483;-91
2022/04/07 12:14:53;;;;;;;33.10;18.77;;;;;;;15.24;41.86;91325.69;5013741;28;20037;-90
2022/04/07 12:17:53;;;;;;;34.72;18.23;;;;;;;15.45;41.71;91331.47;5015467;28;20458;-91
2022/04/07 12:20:35;;;;;;;31.95;16.95;;;;;;;15.40;41.25;91323.78;5013769;28;20064;-91
2022/04/07 12:23:34;;;;;;;29.50;17.52;;;;;;;15.01;41.17;91365.09;5011481;28;20046;-90
2022/04/07 12:26:18;;;;;;;30.20;16.08;;;;;;;15.06;41.30;91381.41;5015856;28;20037;-90
2022/04/07 12:29:25;;;;;;;33.08;16.13;;;;;;;15.35;41.02;91327.47;5004872;28;20076;-91
2022/04/07 12:33:09;;;;;;;;;;;;;;;;;;;;;
2022/04/07 12:35:55;;;;;;;27.42;14.85;;;;;;;14.57;40.81;91339.56;5033705;28;20049;-91
2022/04/07 12:39:17;;;;;;;33.10;16.30;;;;;;;15.23;40.20;91371.63;5035434;28;20040;-90
2022/04/07 12:42:22;;;;;;;30.80;16.30;;;;;;;15.49;40.13;91344.72;5003494;28;20095;-90
2022/04/07 12:45:21;;;;;;;29.77;15.07;;;;;;;14.92;41.19;91341.53;5011109;28;20393;-90